Time;durP1;ratioP1;P1;durP2;ratioP2;P2;SDS_P1;SDS_P2;PMS_P1;PMS_P2;Temp;Humidity;BMP_temperature;BMP_pressure;BME280_temperature;BME280_humidity;BME280_pressure;Samples;Min_cycle;Max_cycle;Signal;HPM_P1;HPM_P2
2022/04/23 00:00:38;;;;;;;16.60;14.80;;;;;;;;;;5014757;28;20210;-79
2022/04/23 00:03:05;;;;;;;18.70;16.30;;;;;;;;;;5004390;28;20195;-79
2022/04/23 00:05:31;;;;;;;18.07;16.17;;;;;;;;;;5017237;28;20674;-79
2022/04/23 00:07:57;;;;;;;18.57;16.47;;;;;;;;;;4998565;28;20207;-79
2022/04/23 00:10:24;;;;;;;18.03;15.73;;;;;;;;;;5027896;28;20218;-79
2022/04/23 00:12:54;;;;;;;18.23;15.87;;;;;;;;;;5012592;28;20202;-79
2022/04/23 00:15:21;;;;;;;19.53;17.33;;;;;;;;;;4997185;28;20199;-79
2022/04/23 00:17:48;;;;;;;17.00;15.20;;;;;;;;;;4984749;28;20207;-79
2022/04/23 00:20:14;;;;;;;19.03;17.03;;;;;;;;;;5011952;28;20199;-80
2022/04/23 00:23:00;;;;;;;17.90;16.03;;;;;;;;;;5012927;28;20277;-80
2022/04/23 00:25:27;;;;;;;21.13;16.80;;;;;;;;;;5013552;28;20724;-80
2022/04/23 00:27:53;;;;;;;23.13;17.83;;;;;;;;;;5014890;28;20265;-80
2022/04/23 00:30:20;;;;;;;22.60;16.70;;;;;;;;;;5011887;28;20534;-80
2022/04/23 00:32:46;;;;;;;20.60;17.80;;;;;;;;;;5011181;28;20722;-80
2022/04/23 00:35:15;;;;;;;19.70;17.27;;;;;;;;;;4992122;28;20186;-80
2022/04/23 00:37:42;;;;;;;18.23;16.23;;;;;;;;;;5012727;28;20238;-80
2022/04/23 00:40:16;;;;;;;17.77;15.97;;;;;;;;;;5012992;28;20214;-80
2022/04/23 00:42:52;;;;;;;16.80;15.10;;;;;;;;;;5016409;28;20183;-79
2022/04/23 00:45:22;;;;;;;18.80;16.60;;;;;;;;;;5012911;28;20552;-80
2022/04/23 00:47:49;;;;;;;17.73;15.93;;;;;;;;;;4997340;28;20214;-80
2022/04/23 00:50:18;;;;;;;19.73;17.63;;;;;;;;;;5013391;28;20192;-80
2022/04/23 00:52:44;;;;;;;29.40;24.67;;;;;;;;;;5016761;28;20680;-79
2022/04/23 00:55:10;;;;;;;21.30;19.00;;;;;;;;;;5030203;28;20261;-80
2022/04/23 00:57:37;;;;;;;20.47;17.70;;;;;;;;;;5005904;28;20341;-80
2022/04/23 01:00:09;;;;;;;18.50;16.50;;;;;;;;;;5012464;28;20222;-80
2022/04/23 01:02:35;;;;;;;19.13;17.10;;;;;;;;;;5027226;28;20234;-80
2022/04/23 01:05:02;;;;;;;18.53;16.60;;;;;;;;;;5011953;28;20635;-80
2022/04/23 01:07:29;;;;;;;17.50;15.60;;;;;;;;;;5006364;28;20202;-80
2022/04/23 01:09:55;;;;;;;19.03;16.80;;;;;;;;;;5011239;28;20191;-80
2022/04/23 01:12:31;;;;;;;21.73;17.93;;;;;;;;;;5016487;28;20218;-80
2022/04/23 01:15:01;;;;;;;20.60;17.30;;;;;;;;;;5000403;28;20329;-79
2022/04/23 01:17:28;;;;;;;19.40;17.07;;;;;;;;;;5013868;28;20214;-80
2022/04/23 01:19:54;;;;;;;23.43;18.13;;;;;;;;;;4995803;28;20225;-80
2022/04/23 01:22:23;;;;;;;20.60;17.17;;;;;;;;;;5010940;28;20914;-79
2022/04/23 01:24:50;;;;;;;18.70;16.73;;;;;;;;;;5010984;28;20198;-80
2022/04/23 01:27:16;;;;;;;17.37;15.13;;;;;;;;;;5010091;28;20206;-79
2022/04/23 01:29:42;;;;;;;17.93;16.03;;;;;;;;;;5011081;28;20222;-80
2022/04/23 01:32:09;;;;;;;16.57;14.77;;;;;;;;;;5012745;28;20187;-80
2022/04/23 01:34:35;;;;;;;16.63;14.83;;;;;;;;;;5010878;28;20643;-80
2022/04/23 01:37:01;;;;;;;17.87;16.07;;;;;;;;;;5025933;28;20206;-80
2022/04/23 01:39:28;;;;;;;16.20;14.50;;;;;;;;;;5010212;28;20219;-79
2022/04/23 01:41:54;;;;;;;15.83;14.23;;;;;;;;;;5009819;28;20194;-80
2022/04/23 01:44:20;;;;;;;19.37;16.10;;;;;;;;;;5011418;28;20247;-80
2022/04/23 01:46:47;;;;;;;17.00;15.13;;;;;;;;;;5012098;28;20294;-80
2022/04/23 01:49:13;;;;;;;17.43;15.63;;;;;;;;;;5010690;28;20183;-79
2022/04/23 01:51:39;;;;;;;17.43;15.50;;;;;;;;;;5024969;28;20655;-79
2022/04/23 01:54:05;;;;;;;16.33;14.73;;;;;;;;;;5011039;28;20707;-79
2022/04/23 01:56:31;;;;;;;19.00;16.30;;;;;;;;;;5011222;28;20211;-79
2022/04/23 01:58:58;;;;;;;16.47;14.73;;;;;;;;;;5011317;28;20203;-79
2022/04/23 02:01:24;;;;;;;17.63;15.83;;;;;;;;;;5012012;28;20269;-79
2022/04/23 02:03:51;;;;;;;17.10;15.17;;;;;;;;;;5027970;28;20180;-79
2022/04/23 02:06:17;;;;;;;16.60;14.80;;;;;;;;;;5015011;28;20187;-79
2022/04/23 02:08:52;;;;;;;16.57;14.93;;;;;;;;;;5000932;28;20250;-79
2022/04/23 02:11:18;;;;;;;18.43;16.53;;;;;;;;;;5019197;28;20294;-79
2022/04/23 02:13:47;;;;;;;18.07;16.27;;;;;;;;;;5014256;28;20710;-79
2022/04/23 02:16:22;;;;;;;18.33;16.43;;;;;;;;;;5015385;28;20234;-79
2022/04/23 02:18:48;;;;;;;17.67;15.90;;;;;;;;;;5015740;28;20198;-79
2022/04/23 02:21:15;;;;;;;18.73;16.83;;;;;;;;;;5012252;28;20637;-79
2022/04/23 02:23:43;;;;;;;18.23;16.33;;;;;;;;;;5011774;28;20184;-79
2022/04/23 02:26:09;;;;;;;18.50;16.47;;;;;;;;;;5022153;28;20944;-79
2022/04/23 02:28:38;;;;;;;18.00;16.20;;;;;;;;;;5012624;28;20195;-79
2022/04/23 02:31:05;;;;;;;19.37;17.13;;;;;;;;;;5014852;28;20195;-79
2022/04/23 02:33:31;;;;;;;19.80;17.63;;;;;;;;;;5014085;28;20191;-79
2022/04/23 02:35:58;;;;;;;18.67;16.33;;;;;;;;;;5013058;28;20216;-79
2022/04/23 02:38:24;;;;;;;20.67;18.57;;;;;;;;;;4996571;28;20215;-79
2022/04/23 02:40:50;;;;;;;17.37;15.57;;;;;;;;;;5014240;28;20264;-79
2022/04/23 02:43:16;;;;;;;19.90;17.80;;;;;;;;;;5015270;28;20183;-79
2022/04/23 02:45:42;;;;;;;20.57;18.37;;;;;;;;;;5012227;28;20198;-79
2022/04/23 02:48:12;;;;;;;21.87;18.97;;;;;;;;;;5013985;28;20203;-79
2022/04/23 02:50:39;;;;;;;20.20;18.20;;;;;;;;;;5015461;28;20698;-79
2022/04/23 02:53:05;;;;;;;24.10;20.03;;;;;;;;;;5014890;28;20174;-79
2022/04/23 02:55:32;;;;;;;21.07;17.80;;;;;;;;;;5012380;28;20191;-79
2022/04/23 02:58:03;;;;;;;18.37;16.47;;;;;;;;;;5013120;28;20222;-79
2022/04/23 03:00:29;;;;;;;19.07;17.13;;;;;;;;;;5012753;28;20732;-79
2022/04/23 03:02:55;;;;;;;20.53;18.43;;;;;;;;;;5028859;28;20176;-79
2022/04/23 03:05:21;;;;;;;18.83;17.03;;;;;;;;;;5012292;28;20565;-79
2022/04/23 03:07:48;;;;;;;18.90;16.90;;;;;;;;;;5013896;28;20298;-79
2022/04/23 03:10:16;;;;;;;19.33;17.33;;;;;;;;;;5006416;28;20195;-79
2022/04/23 03:12:42;;;;;;;17.93;16.13;;;;;;;;;;5009445;28;20230;-79
2022/04/23 03:15:16;;;;;;;20.57;18.57;;;;;;;;;;5012746;28;20224;-79
2022/04/23 03:17:43;;;;;;;20.13;18.10;;;;;;;;;;5011354;28;20215;-79
2022/04/23 03:20:10;;;;;;;19.37;17.37;;;;;;;;;;5011741;28;20340;-79
2022/04/23 03:22:37;;;;;;;18.03;16.13;;;;;;;;;;5011434;28;20194;-79
2022/04/23 03:25:04;;;;;;;19.70;17.67;;;;;;;;;;4978888;28;20658;-79
2022/04/23 03:27:30;;;;;;;18.07;16.17;;;;;;;;;;5011236;28;20199;-79
2022/04/23 03:30:00;;;;;;;19.03;17.03;;;;;;;;;;5005244;28;20194;-79
2022/04/23 03:32:26;;;;;;;20.67;18.47;;;;;;;;;;5007836;28;20187;-79
2022/04/23 03:34:53;;;;;;;19.93;17.63;;;;;;;;;;5004697;28;20221;-79
2022/04/23 03:37:19;;;;;;;19.17;17.17;;;;;;;;;;5008981;28;20202;-79
2022/04/23 03:39:45;;;;;;;18.27;16.37;;;;;;;;;;5004902;28;20207;-78
2022/04/23 03:42:11;;;;;;;19.27;17.27;;;;;;;;;;5007226;28;20218;-80
2022/04/23 03:44:38;;;;;;;18.57;16.67;;;;;;;;;;4987646;28;20269;-79
2022/04/23 03:47:04;;;;;;;17.50;15.60;;;;;;;;;;5008273;28;20203;-79
2022/04/23 03:49:31;;;;;;;22.67;19.43;;;;;;;;;;5005075;28;20211;-79
2022/04/23 03:51:57;;;;;;;17.63;15.83;;;;;;;;;;5009314;28;20184;-79
2022/04/23 03:54:23;;;;;;;17.30;15.60;;;;;;;;;;4994179;28;20253;-79
2022/04/23 03:56:50;;;;;;;17.37;15.67;;;;;;;;;;5010722;28;20199;-79
2022/04/23 03:59:20;;;;;;;18.20;16.10;;;;;;;;;;5005631;28;20191;-79
2022/04/23 04:01:47;;;;;;;17.30;15.60;;;;;;;;;;5011928;28;20276;-80
2022/04/23 04:04:14;;;;;;;17.77;16.03;;;;;;;;;;4993621;28;20192;-79
2022/04/23 04:06:41;;;;;;;16.47;14.80;;;;;;;;;;5009010;28;20187;-79
2022/04/23 04:09:07;;;;;;;16.93;15.17;;;;;;;;;;5002080;28;20191;-79
2022/04/23 04:14:18;;;;;;;16.30;14.70;;;;;;;;;;4993901;28;20199;-79
2022/04/23 04:16:48;;;;;;;16.77;15.07;;;;;;;;;;5011723;28;20851;-79
2022/04/23 04:19:14;;;;;;;15.90;14.30;;;;;;;;;;4994520;28;20227;-79
2022/04/23 04:21:43;;;;;;;15.57;14.07;;;;;;;;;;5012661;28;20270;-78
2022/04/23 04:24:12;;;;;;;17.03;15.27;;;;;;;;;;5010531;28;20176;-79
2022/04/23 04:26:42;;;;;;;15.80;14.30;;;;;;;;;;5010936;28;20215;-79
2022/04/23 04:29:08;;;;;;;16.63;14.93;;;;;;;;;;5019316;28;20187;-79
2022/04/23 04:31:47;;;;;;;17.07;15.47;;;;;;;;;;5005669;28;20695;-80
2022/04/23 04:34:33;;;;;;;15.60;14.00;;;;;;;;;;5011512;28;20191;-79
2022/04/23 04:37:04;;;;;;;14.97;13.23;;;;;;;;;;5013701;28;20289;-81
2022/04/23 04:39:30;;;;;;;16.13;14.43;;;;;;;;;;5016793;28;20730;-81
2022/04/23 04:41:57;;;;;;;15.83;14.33;;;;;;;;;;4987448;28;20193;-79
2022/04/23 04:44:23;;;;;;;18.17;16.37;;;;;;;;;;4979967;28;20195;-80
2022/04/23 04:46:50;;;;;;;16.87;14.93;;;;;;;;;;5011975;28;20211;-82
2022/04/23 04:49:16;;;;;;;16.47;14.87;;;;;;;;;;4980851;28;20683;-81
2022/04/23 04:51:43;;;;;;;15.00;13.50;;;;;;;;;;4994928;28;20203;-81
2022/04/23 04:54:09;;;;;;;14.70;13.20;;;;;;;;;;5015965;28;20190;-80
2022/04/23 04:56:35;;;;;;;18.00;16.10;;;;;;;;;;5007142;28;20191;-79
2022/04/23 04:59:02;;;;;;;18.93;16.23;;;;;;;;;;5013157;28;20263;-79
2022/04/23 05:01:29;;;;;;;16.93;15.23;;;;;;;;;;5014640;28;20579;-79
2022/04/23 05:03:55;;;;;;;16.10;14.20;;;;;;;;;;5013363;28;20234;-79
2022/04/23 05:06:21;;;;;;;16.50;14.23;;;;;;;;;;5015857;28;20266;-80
2022/04/23 05:08:48;;;;;;;16.57;14.77;;;;;;;;;;4993264;28;20187;-79
2022/04/23 05:11:14;;;;;;;15.80;14.20;;;;;;;;;;5010268;28;20207;-80
2022/04/23 05:13:40;;;;;;;14.63;13.13;;;;;;;;;;4997093;28;20281;-78
2022/04/23 05:16:06;;;;;;;13.80;12.40;;;;;;;;;;5007053;28;20270;-78
2022/04/23 05:18:33;;;;;;;13.10;11.80;;;;;;;;;;4997554;28;20225;-78
2022/04/23 05:20:59;;;;;;;14.43;12.93;;;;;;;;;;5008508;28;20223;-77
2022/04/23 05:23:25;;;;;;;14.53;12.90;;;;;;;;;;5014522;28;20183;-78
2022/04/23 05:25:52;;;;;;;13.63;12.07;;;;;;;;;;5010463;28;20171;-78
2022/04/23 05:28:18;;;;;;;12.60;11.30;;;;;;;;;;5016991;28;20238;-78
2022/04/23 05:30:45;;;;;;;14.37;12.90;;;;;;;;;;5011413;28;20667;-78
2022/04/23 05:33:11;;;;;;;13.07;11.67;;;;;;;;;;5011236;28;20262;-78
2022/04/23 05:35:37;;;;;;;12.73;11.43;;;;;;;;;;5005132;28;20207;-78
2022/04/23 05:38:04;;;;;;;11.47;10.37;;;;;;;;;;5010883;28;20207;-78
2022/04/23 05:40:30;;;;;;;11.50;10.43;;;;;;;;;;5007496;28;20211;-78
2022/04/23 05:42:58;;;;;;;12.50;11.30;;;;;;;;;;5007675;28;20182;-79
2022/04/23 05:45:29;;;;;;;12.67;11.47;;;;;;;;;;5002668;28;20188;-78
2022/04/23 05:47:55;;;;;;;11.50;10.40;;;;;;;;;;5008770;28;20665;-78
2022/04/23 05:50:22;;;;;;;12.00;10.50;;;;;;;;;;5007277;28;20598;-78
2022/04/23 05:52:48;;;;;;;11.50;10.40;;;;;;;;;;5022053;28;20637;-78
2022/04/23 05:55:15;;;;;;;11.10;10.10;;;;;;;;;;5009236;28;20191;-78
2022/04/23 05:57:41;;;;;;;11.23;10.13;;;;;;;;;;5005756;28;20298;-78
2022/04/23 06:00:08;;;;;;;10.23;9.23;;;;;;;;;;5014628;28;20571;-78
2022/04/23 06:02:38;;;;;;;10.27;9.27;;;;;;;;;;5008425;28;20229;-78
2022/04/23 06:05:04;;;;;;;10.27;9.27;;;;;;;;;;5005174;28;20676;-78
2022/04/23 06:07:31;;;;;;;10.70;8.60;;;;;;;;;;5023048;28;20253;-77
2022/04/23 06:09:57;;;;;;;10.23;9.23;;;;;;;;;;5009213;28;20187;-78
2022/04/23 06:12:23;;;;;;;11.40;8.47;;;;;;;;;;5010055;28;20656;-78
2022/04/23 06:14:49;;;;;;;8.70;7.90;;;;;;;;;;5016110;28;20195;-78
2022/04/23 06:17:17;;;;;;;9.40;8.50;;;;;;;;;;5008300;28;20214;-77
2022/04/23 06:19:43;;;;;;;8.93;8.13;;;;;;;;;;5005054;28;20203;-78
2022/04/23 06:22:09;;;;;;;10.07;7.87;;;;;;;;;;5007554;28;20234;-77
2022/04/23 06:24:35;;;;;;;9.40;8.50;;;;;;;;;;5006291;28;20179;-78
2022/04/23 06:27:02;;;;;;;8.90;8.00;;;;;;;;;;5012415;28;20218;-78
2022/04/23 06:29:29;;;;;;;8.63;7.83;;;;;;;;;;5005967;28;20188;-78
2022/04/23 06:31:55;;;;;;;10.00;7.60;;;;;;;;;;5012351;28;20245;-78
2022/04/23 06:34:21;;;;;;;8.50;7.60;;;;;;;;;;5022851;28;20738;-77
2022/04/23 06:36:47;;;;;;;7.30;6.60;;;;;;;;;;5029733;28;20195;-77
2022/04/23 06:39:13;;;;;;;9.63;7.97;;;;;;;;;;5027832;28;20205;-78
2022/04/23 06:41:39;;;;;;;7.87;7.17;;;;;;;;;;5022797;28;20215;-78
2022/04/23 06:44:06;;;;;;;6.80;6.20;;;;;;;;;;5019412;28;20202;-77
2022/04/23 06:46:33;;;;;;;6.90;6.30;;;;;;;;;;5018117;28;20171;-77
2022/04/23 06:49:04;;;;;;;6.53;5.93;;;;;;;;;;5017514;28;20179;-77
2022/04/23 06:51:31;;;;;;;8.33;6.93;;;;;;;;;;5019670;28;20196;-78
2022/04/23 06:53:57;;;;;;;6.47;5.73;;;;;;;;;;5020481;28;20186;-77
2022/04/23 06:56:44;;;;;;;5.90;5.40;;;;;;;;;;5013757;28;20359;-78
2022/04/23 06:59:10;;;;;;;5.80;5.30;;;;;;;;;;5016226;28;20251;-78
2022/04/23 07:01:36;;;;;;;5.73;5.23;;;;;;;;;;5014972;28;20203;-77
2022/04/23 07:04:03;;;;;;;8.27;5.47;;;;;;;;;;5017420;28;20172;-78
2022/04/23 07:06:29;;;;;;;5.93;5.00;;;;;;;;;;5008868;28;20246;-77
2022/04/23 07:08:55;;;;;;;5.40;4.90;;;;;;;;;;5010389;28;20193;-78
2022/04/23 07:11:23;;;;;;;5.50;5.00;;;;;;;;;;5008064;28;20202;-78
2022/04/23 07:13:49;;;;;;;7.30;4.80;;;;;;;;;;5014579;28;20186;-77
2022/04/23 07:16:17;;;;;;;4.83;4.43;;;;;;;;;;5018839;28;20221;-77
2022/04/23 07:18:43;;;;;;;5.33;4.50;;;;;;;;;;5012002;28;20235;-78
2022/04/23 07:21:09;;;;;;;4.87;4.37;;;;;;;;;;5013276;28;20241;-77
2022/04/23 07:26:20;;;;;;;4.57;4.17;;;;;;;;;;5011165;28;20191;-78
2022/04/23 07:28:47;;;;;;;4.20;3.80;;;;;;;;;;5014021;28;20329;-78
2022/04/23 07:31:13;;;;;;;4.77;4.33;;;;;;;;;;5014961;28;20211;-77
2022/04/23 07:39:09;;;;;;;4.60;4.20;;;;;;;;;;5013258;28;20190;-77
2022/04/23 07:41:36;;;;;;;5.37;3.90;;;;;;;;;;5010749;28;20302;-78
2022/04/23 07:44:02;;;;;;;4.13;3.83;;;;;;;;;;5002392;28;20670;-77
2022/04/23 07:47:07;;;;;;;4.20;3.80;;;;;;;;;;4911984;29;20270;-78
2022/04/23 07:49:33;;;;;;;4.57;4.17;;;;;;;;;;4915283;29;20197;-77
2022/04/23 07:51:59;;;;;;;5.20;3.97;;;;;;;;;;4960725;28;20605;-77
2022/04/23 07:54:25;;;;;;;4.27;3.93;;;;;;;;;;5012562;28;20191;-77
2022/04/23 07:56:52;;;;;;;6.20;4.00;;;;;;;;;;5010397;28;20226;-78
2022/04/23 07:59:18;;;;;;;5.03;4.60;;;;;;;;;;5012528;28;20192;-77
2022/04/23 08:01:44;;;;;;;5.10;4.60;;;;;;;;;;5014740;28;20215;-77
2022/04/23 08:04:10;;;;;;;5.17;4.70;;;;;;;;;;5011249;28;20186;-78
2022/04/23 08:06:37;;;;;;;4.53;4.13;;;;;;;;;;5010846;28;20572;-77
2022/04/23 08:09:03;;;;;;;5.23;4.73;;;;;;;;;;5014050;28;20275;-77
2022/04/23 08:11:30;;;;;;;5.13;4.73;;;;;;;;;;5010381;28;20281;-78
2022/04/23 08:13:56;;;;;;;6.50;6.00;;;;;;;;;;5017077;28;20282;-78
2022/04/23 08:16:25;;;;;;;7.70;5.00;;;;;;;;;;5008149;28;20252;-78
2022/04/23 08:18:51;;;;;;;5.10;4.67;;;;;;;;;;5013298;28;20227;-78
2022/04/23 08:21:17;;;;;;;5.27;4.77;;;;;;;;;;5015296;28;20225;-78
2022/04/23 08:23:43;;;;;;;5.10;4.70;;;;;;;;;;4997173;28;20187;-78
2022/04/23 08:26:10;;;;;;;5.23;4.70;;;;;;;;;;5013844;28;20249;-77
2022/04/23 08:31:41;;;;;;;5.27;4.80;;;;;;;;;;5012353;28;20273;-78
2022/04/23 08:34:07;;;;;;;5.80;5.20;;;;;;;;;;5014211;28;20187;-78
2022/04/23 08:36:37;;;;;;;5.00;4.57;;;;;;;;;;5017520;28;20175;-77
2022/04/23 08:39:04;;;;;;;5.40;4.90;;;;;;;;;;5015265;28;20187;-78
2022/04/23 08:41:53;;;;;;;7.03;5.53;;;;;;;;;;5014683;28;20241;-77
2022/04/23 08:44:21;;;;;;;6.53;5.87;;;;;;;;;;5016038;28;20270;-77
2022/04/23 08:46:49;;;;;;;5.70;5.10;;;;;;;;;;5016386;28;20199;-80
2022/04/23 08:49:16;;;;;;;5.27;4.87;;;;;;;;;;5011432;28;20761;-77
2022/04/23 08:51:45;;;;;;;6.50;4.90;;;;;;;;;;5011664;28;20210;-78
2022/04/23 08:54:12;;;;;;;5.50;5.00;;;;;;;;;;5012118;28;20183;-79
2022/04/23 08:56:39;;;;;;;8.17;5.30;;;;;;;;;;5012302;28;20187;-78
2022/04/23 08:59:06;;;;;;;6.00;4.33;;;;;;;;;;5012971;28;20265;-79
2022/04/23 09:01:34;;;;;;;5.37;4.87;;;;;;;;;;5014713;28;20215;-81
2022/04/23 09:04:01;;;;;;;5.40;4.80;;;;;;;;;;5013492;28;20762;-80
2022/04/23 09:06:34;;;;;;;4.73;4.33;;;;;;;;;;5013236;28;20636;-80
2022/04/23 09:09:20;;;;;;;5.20;4.70;;;;;;;;;;5011430;28;20546;-82
2022/04/23 09:11:49;;;;;;;5.20;4.70;;;;;;;;;;4994957;28;20641;-79
2022/04/23 09:14:23;;;;;;;5.20;4.70;;;;;;;;;;5013722;28;20653;-78
2022/04/23 09:25:07;;;;;;;4.83;4.43;;;;;;;;;;5005281;28;20187;-78
2022/04/23 09:27:34;;;;;;;4.47;4.07;;;;;;;;;;5011200;28;20234;-78
2022/04/23 09:30:02;;;;;;;4.73;4.33;;;;;;;;;;5009798;28;20199;-78
2022/04/23 09:32:28;;;;;;;4.57;4.10;;;;;;;;;;5012748;28;20182;-79
2022/04/23 09:35:07;;;;;;;4.90;4.43;;;;;;;;;;5017562;28;20179;-78
2022/04/23 09:40:19;;;;;;;7.30;5.23;;;;;;;;;;5010445;28;20322;-78
2022/04/23 09:42:56;;;;;;;5.50;5.00;;;;;;;;;;5023568;28;20717;-78
2022/04/23 09:45:26;;;;;;;4.83;4.33;;;;;;;;;;5025165;28;20191;-79
2022/04/23 09:47:53;;;;;;;5.37;4.87;;;;;;;;;;5008887;28;20290;-76
2022/04/23 09:50:19;;;;;;;6.90;5.27;;;;;;;;;;5014930;28;20179;-78
2022/04/23 09:52:46;;;;;;;5.57;5.07;;;;;;;;;;5009307;28;20233;-81
2022/04/23 09:55:14;;;;;;;5.93;5.43;;;;;;;;;;4993187;28;20191;-79
2022/04/23 09:57:41;;;;;;;5.20;4.80;;;;;;;;;;5013635;28;20215;-81
2022/04/23 10:00:08;;;;;;;6.13;5.60;;;;;;;;;;4997633;28;20223;-82
2022/04/23 10:02:34;;;;;;;6.00;5.50;;;;;;;;;;5012588;28;20201;-81
2022/04/23 10:05:02;;;;;;;5.87;5.37;;;;;;;;;;5012902;28;20647;-80
2022/04/23 10:07:29;;;;;;;5.53;5.03;;;;;;;;;;4990892;28;20227;-78
2022/04/23 10:09:57;;;;;;;5.03;4.63;;;;;;;;;;5005495;28;20198;-81
2022/04/23 10:12:25;;;;;;;6.47;5.20;;;;;;;;;;5015547;28;20222;-81
2022/04/23 10:15:00;;;;;;;8.40;5.27;;;;;;;;;;5008830;28;20281;-81
2022/04/23 10:17:28;;;;;;;6.00;5.50;;;;;;;;;;4983185;28;20226;-81
2022/04/23 10:20:00;;;;;;;6.03;5.10;;;;;;;;;;5035813;28;20256;-80
2022/04/23 10:22:35;;;;;;;6.67;4.60;;;;;;;;;;5013664;28;20187;-82
2022/04/23 10:25:22;;;;;;;4.90;4.50;;;;;;;;;;5017704;28;20186;-81
2022/04/23 10:27:50;;;;;;;5.57;4.70;;;;;;;;;;4999422;28;20214;-81
2022/04/23 10:30:16;;;;;;;4.93;4.53;;;;;;;;;;5011066;28;20191;-81
2022/04/23 10:32:43;;;;;;;4.87;4.47;;;;;;;;;;5001721;28;20188;-81
2022/04/23 10:35:18;;;;;;;6.07;4.40;;;;;;;;;;5005320;28;20600;-82
2022/04/23 10:37:50;;;;;;;5.43;4.93;;;;;;;;;;4992256;28;20211;-81
2022/04/23 10:40:21;;;;;;;5.17;4.63;;;;;;;;;;5008633;28;20299;-81
2022/04/23 10:43:09;;;;;;;4.70;4.23;;;;;;;;;;5011738;28;20187;-81
2022/04/23 10:45:36;;;;;;;4.73;4.33;;;;;;;;;;5010266;28;20557;-82
2022/04/23 10:48:24;;;;;;;4.90;4.07;;;;;;;;;;4992111;28;20199;-81
2022/04/23 10:51:03;;;;;;;4.90;4.50;;;;;;;;;;5010799;28;20643;-81
2022/04/23 10:53:37;;;;;;;5.13;4.63;;;;;;;;;;5029622;28;20650;-81
2022/04/23 10:56:07;;;;;;;4.77;4.37;;;;;;;;;;5000859;28;20218;-79
2022/04/23 10:58:33;;;;;;;5.00;4.57;;;;;;;;;;5023130;28;20738;-80
2022/04/23 11:01:22;;;;;;;4.80;4.40;;;;;;;;;;5023381;28;20230;-79
2022/04/23 11:03:58;;;;;;;5.43;4.67;;;;;;;;;;5013603;28;20176;-80
2022/04/23 11:12:42;;;;;;;4.10;3.70;;;;;;;;;;5026140;28;20206;-80
2022/04/23 11:15:15;;;;;;;5.13;4.73;;;;;;;;;;4991508;28;20191;-83
2022/04/23 11:17:46;;;;;;;4.87;4.47;;;;;;;;;;4993379;28;20302;-81
2022/04/23 11:20:13;;;;;;;5.00;4.60;;;;;;;;;;4996369;28;20302;-79
2022/04/23 11:22:40;;;;;;;5.43;4.23;;;;;;;;;;4989257;28;20195;-80
2022/04/23 11:25:07;;;;;;;4.30;3.90;;;;;;;;;;5005408;28;20180;-78
2022/04/23 11:27:36;;;;;;;5.97;4.00;;;;;;;;;;5011103;28;20705;-82
2022/04/23 11:30:06;;;;;;;4.23;3.83;;;;;;;;;;4993480;28;20183;-79
2022/04/23 11:32:34;;;;;;;3.83;3.53;;;;;;;;;;5009448;28;20187;-82
2022/04/23 11:35:01;;;;;;;4.27;3.87;;;;;;;;;;5011801;28;20237;-83
2022/04/23 11:37:38;;;;;;;3.60;3.30;;;;;;;;;;5022781;28;20277;-81
2022/04/23 11:40:11;;;;;;;4.60;4.20;;;;;;;;;;5013547;28;20206;-81
2022/04/23 11:42:44;;;;;;;4.00;3.70;;;;;;;;;;5027236;28;20173;-81
2022/04/23 11:45:11;;;;;;;4.37;3.97;;;;;;;;;;4992388;28;20254;-81
2022/04/23 11:47:38;;;;;;;3.90;3.60;;;;;;;;;;5006351;28;20261;-81
2022/04/23 11:50:22;;;;;;;3.93;3.63;;;;;;;;;;5008032;28;20187;-81
2022/04/23 11:52:59;;;;;;;4.00;3.60;;;;;;;;;;5011774;28;20194;-82
2022/04/23 11:55:26;;;;;;;3.87;3.57;;;;;;;;;;5013431;28;20187;-80
2022/04/23 11:57:59;;;;;;;4.47;4.07;;;;;;;;;;5008009;28;20219;-81
2022/04/23 12:00:26;;;;;;;4.23;3.90;;;;;;;;;;4994974;28;20215;-81
2022/04/23 12:02:53;;;;;;;3.97;3.47;;;;;;;;;;5008459;28;20227;-80
2022/04/23 12:05:28;;;;;;;4.00;3.67;;;;;;;;;;5010482;28;20226;-79
2022/04/23 12:07:55;;;;;;;4.37;3.97;;;;;;;;;;5005667;28;20251;-80
2022/04/23 12:10:23;;;;;;;4.17;3.77;;;;;;;;;;5008741;28;20198;-76
2022/04/23 12:12:53;;;;;;;6.10;4.10;;;;;;;;;;5021307;28;20198;-83
2022/04/23 12:15:21;;;;;;;4.57;4.17;;;;;;;;;;4993662;28;20218;-85
2022/04/23 12:17:52;;;;;;;4.00;3.70;;;;;;;;;;4992911;28;20679;-82
2022/04/23 12:20:25;;;;;;;4.70;3.87;;;;;;;;;;5008143;28;20218;-78
2022/04/23 12:22:55;;;;;;;5.17;4.00;;;;;;;;;;4990801;28;20241;-78
2022/04/23 12:25:25;;;;;;;3.73;3.43;;;;;;;;;;5011631;28;20211;-78
2022/04/23 12:28:01;;;;;;;3.97;3.67;;;;;;;;;;4992905;28;20243;-78
2022/04/23 12:42:15;;;;;;;4.83;4.43;;;;;;;;;;5006575;28;20733;-78
2022/04/23 12:44:46;;;;;;;4.20;3.80;;;;;;;;;;5006940;28;20200;-80
2022/04/23 12:47:13;;;;;;;4.83;4.43;;;;;;;;;;5009865;28;20342;-78
2022/04/23 12:49:47;;;;;;;4.30;3.90;;;;;;;;;;5013019;28;20202;-78
2022/04/23 12:52:20;;;;;;;5.60;5.10;;;;;;;;;;4980491;28;20615;-78
2022/04/23 12:55:05;;;;;;;8.03;5.80;;;;;;;;;;5012088;28;20473;-78
2022/04/23 12:57:31;;;;;;;7.33;6.63;;;;;;;;;;5015446;28;20191;-78
2022/04/23 12:59:58;;;;;;;5.93;5.43;;;;;;;;;;5012237;28;20214;-78
2022/04/23 13:02:24;;;;;;;6.77;6.17;;;;;;;;;;4996822;28;20684;-77
2022/04/23 13:04:50;;;;;;;5.90;5.30;;;;;;;;;;5015009;28;20191;-78
2022/04/23 13:10:01;;;;;;;6.73;6.13;;;;;;;;;;5013904;28;20214;-78
2022/04/23 13:12:27;;;;;;;7.00;6.30;;;;;;;;;;5010584;28;20187;-78
2022/04/23 13:14:53;;;;;;;7.43;6.30;;;;;;;;;;5017034;28;20229;-77
2022/04/23 13:17:21;;;;;;;7.80;7.10;;;;;;;;;;5013087;28;20201;-78
2022/04/23 13:19:50;;;;;;;8.10;7.30;;;;;;;;;;5007778;28;20672;-78
2022/04/23 13:22:17;;;;;;;7.87;7.10;;;;;;;;;;5007061;28;20402;-78
2022/04/23 13:24:43;;;;;;;8.20;7.23;;;;;;;;;;5000926;28;20198;-78
2022/04/23 13:27:09;;;;;;;7.57;6.87;;;;;;;;;;5007944;28;20203;-78
2022/04/23 13:29:35;;;;;;;7.53;6.83;;;;;;;;;;5011282;28;20195;-78
2022/04/23 13:32:02;;;;;;;7.10;6.40;;;;;;;;;;5014363;28;20183;-78
2022/04/23 13:34:28;;;;;;;8.50;7.23;;;;;;;;;;5008968;28;20195;-78
2022/04/23 13:36:55;;;;;;;9.57;7.40;;;;;;;;;;5012338;28;20713;-78
2022/04/23 13:39:21;;;;;;;8.20;7.50;;;;;;;;;;5011212;28;20655;-78
2022/04/23 13:41:49;;;;;;;8.23;7.43;;;;;;;;;;5003954;28;20215;-78
2022/04/23 13:44:18;;;;;;;7.70;7.00;;;;;;;;;;4999417;28;20179;-77
2022/04/23 13:46:45;;;;;;;9.40;8.50;;;;;;;;;;5014609;28;20183;-78
2022/04/23 13:49:12;;;;;;;8.80;7.90;;;;;;;;;;5016341;28;20271;-78
2022/04/23 13:51:39;;;;;;;9.50;8.50;;;;;;;;;;5012200;28;20183;-78
2022/04/23 13:54:05;;;;;;;8.57;7.77;;;;;;;;;;4998397;28;20332;-78
2022/04/23 13:56:33;;;;;;;8.83;8.03;;;;;;;;;;5014423;28;20211;-78
2022/04/23 13:58:59;;;;;;;9.83;8.10;;;;;;;;;;4995848;28;20194;-78
2022/04/23 14:01:26;;;;;;;9.23;8.37;;;;;;;;;;5010698;28;20847;-78
2022/04/23 14:12:15;;;;;;;10.13;9.00;;;;;;;;;;5015285;28;20199;-78
2022/04/23 14:14:42;;;;;;;9.80;8.87;;;;;;;;;;5016262;28;20186;-78
2022/04/23 14:17:09;;;;;;;10.40;9.37;;;;;;;;;;5014967;28;20245;-78
2022/04/23 14:19:36;;;;;;;11.63;10.53;;;;;;;;;;5014509;28;20223;-78
2022/04/23 14:22:04;;;;;;;10.03;9.03;;;;;;;;;;5015876;28;20298;-78
2022/04/23 14:24:31;;;;;;;10.43;9.43;;;;;;;;;;5009819;28;20601;-78
2022/04/23 14:26:58;;;;;;;9.80;8.90;;;;;;;;;;5011201;28;20208;-78
2022/04/23 14:29:24;;;;;;;10.17;8.97;;;;;;;;;;5012610;28;20187;-78
2022/04/23 14:31:50;;;;;;;9.83;8.90;;;;;;;;;;5010119;28;20195;-78
2022/04/23 14:34:17;;;;;;;11.27;10.17;;;;;;;;;;5012560;28;20190;-78
2022/04/23 14:36:43;;;;;;;11.57;10.50;;;;;;;;;;4993515;28;20187;-78
2022/04/23 14:39:09;;;;;;;13.27;11.90;;;;;;;;;;5007499;28;20231;-78
2022/04/23 14:41:36;;;;;;;12.73;11.43;;;;;;;;;;5036772;28;20199;-78
2022/04/23 14:44:02;;;;;;;13.00;11.70;;;;;;;;;;5021085;28;20313;-78
2022/04/23 14:46:28;;;;;;;12.83;11.57;;;;;;;;;;5010473;28;20180;-78
2022/04/23 14:48:55;;;;;;;12.93;11.70;;;;;;;;;;5013167;28;20183;-78
2022/04/23 14:54:06;;;;;;;14.10;12.70;;;;;;;;;;5015016;28;20245;-78
2022/04/23 14:56:33;;;;;;;27.87;25.00;;;;;;;;;;5012803;28;20236;-78
2022/04/23 14:59:00;;;;;;;15.53;13.50;;;;;;;;;;5007118;28;20211;-78
2022/04/23 15:01:26;;;;;;;12.53;11.33;;;;;;;;;;5012239;28;20215;-78
2022/04/23 15:03:53;;;;;;;11.43;10.33;;;;;;;;;;5006887;28;20561;-78
2022/04/23 15:06:21;;;;;;;12.73;11.43;;;;;;;;;;4994927;28;20176;-78
2022/04/23 15:08:48;;;;;;;13.47;11.80;;;;;;;;;;5026536;28;20333;-78
2022/04/23 15:11:14;;;;;;;10.67;9.67;;;;;;;;;;5008876;28;20190;-78
2022/04/23 15:13:41;;;;;;;10.70;9.70;;;;;;;;;;5007561;28;20196;-78
2022/04/23 15:16:07;;;;;;;12.07;10.97;;;;;;;;;;5018800;28;20502;-78
2022/04/23 15:18:33;;;;;;;13.87;12.20;;;;;;;;;;5017483;28;20207;-78
2022/04/23 15:20:59;;;;;;;12.40;11.20;;;;;;;;;;5017529;28;20214;-78
2022/04/23 15:23:25;;;;;;;13.07;11.87;;;;;;;;;;5004507;28;20190;-78
2022/04/23 15:25:53;;;;;;;12.20;11.00;;;;;;;;;;5013531;28;20191;-78
2022/04/23 15:28:20;;;;;;;18.90;16.90;;;;;;;;;;4996777;28;20260;-78
2022/04/23 15:30:46;;;;;;;12.67;11.37;;;;;;;;;;5012282;28;20179;-78
2022/04/23 15:33:14;;;;;;;13.40;12.10;;;;;;;;;;5015431;28;20217;-78